SVPL1: Red River at Shreveport Site 2

                                SHEF ID:       SVPL1     Red River at Shreveport Site 2
STATION TYPE:

PRECIP STAGE RIV-FLOW VOLTAGE
in ft cfs volt
Ccp-Rev Ccp-Rev Ccp-Rev Ccp-Rev
(America/Chicago)
07/31 00:00 0.00 13.84 2296 12.84
07/31 01:00 0.00 13.85 2340 12.84
07/31 02:00 0.00 13.81 2164 12.82
07/31 03:00 0.00 13.86 2384 12.82
07/31 04:00 0.00 13.75 1900 12.80
07/31 05:00 0.00 13.74 1856 12.79
07/31 06:00 0.00 13.87 2428 12.78
07/31 07:00 0.00 13.80 2120 12.94
07/31 08:00 0.00 13.77 1988 13.32
07/31 09:00 0.00 13.77 1988 13.06
07/31 10:00 0.00 13.71 1724 13.07
07/31 11:00 0.00 13.71 1724 13.06
07/31 12:00 0.00 13.68 1592 13.07
07/31 13:00 0.00 13.71 1724 13.07
07/31 14:00 0.00 13.63 1372 13.09
07/31 15:00 0.00 13.70 1680 13.07
07/31 16:00 0.00 13.63 1372 13.09
07/31 17:00 0.00 13.62 1328 13.09
07/31 18:00 0.00 13.64 1416 13.06
07/31 19:00 0.00 13.65 1460 12.93
07/31 20:00 0.00 13.62 1328 12.90
07/31 21:00 0.00 13.49 800 12.88
07/31 22:00 0.00 13.55 1020 12.87
07/31 23:00 0.00 13.49 800 12.88
Data processed at Sat 01Aug2026 04:24 GMT

NOTICE: If you are parsing this page

Please convert to using our Data API. Starting early 2026 we will be migrating to: https://water.usace.army.mil with modern pages rendered in JavaScript. When this migration completes you will no longer be able to scrape this page! CWMSDataAPI (CDA)

Timeseries IDs (TSIDs)

TSIDs used from left to right in the data table
SHRE.Precip-Inc.Total.1Hour.1Hour.Ccp-Rev
SHRE.Stage.Inst.1Hour.0.Ccp-Rev
SHRE.Flow.Inst.1Hour.0.Ccp-Rev
SHRE.Volt-Battery.Inst.1Hour.0.Ccp-Rev

                            

All information presented herein is the property of the government of the United States of America and may be revised or deleted at any time without prior notice. Dissemination of this information without the expressed written consent of the Public Affairs Office, Tulsa District U.S. Army Corps of Engineers is strictly prohibited. These data are gathered electronically and, as presented, have NOT undergone any form of quality control. These data are NOT guaranteed to be valid or correct.